EPKKEPGD

Guest
Details From EPKK - BALICE
To EPGD - LECH WALESA
Flight Number -
Tags decoded
Created
Modified
Stats Distance 264 nm / 489 km
Max Altitude 0 ft / 0 m
Waypoints 5
Social Downloads 3
Likes 0
Share VATSIM

Download

Looking for another format? Having issues loading an existing format? Contact us
Advertisement - Login to hide

Notes

Requested: EPKK LDZ UN133 TITAK N133 VAVEK ILRUN1R EPGD Unmatched points: N133 ILRUN1R

Route

EPKK LDZ UN133 TITAK VAVEK EPGD

ID Type Via Altitude Latitude Longitude Leg Dist Tot Dist Heading (true) Name
O EPKK APT - 0 ft / 0 m 50.07782˚ 19.78550˚ - 0 nm - BALICE
LDZ VOR - 0 ft / 0 m 51.80012˚ 19.65615˚ 103 nm 103 nm 357° / 357° LODZ VOR-DME
TITAK FIX UN133 (AWY-HI) 0 ft / 0 m 52.19167˚ 19.46333˚ 24 nm 128 nm 343° / 343° -
VAVEK FIX - 0 ft / 0 m 52.69000˚ 19.21278˚ 31 nm 159 nm 343° / 343° -
O EPGD APT - 0 ft / 0 m 54.37617˚ 18.47188˚ 104 nm 264 nm 346° / 345° LECH WALESA

Altitude Profile

Advertisement - Login to hide

Weather


0- 5 10 15 20 25 30 35+ Temperature / ° C

Clouds and Precipitation
Forecast for 2017-12-12 06:00 UTC. Updated an hour ago

Ground ~20,000 ft ~40,000 ft Winds

EPKK

Details ICAO EPKK (KRK)
Name BALICE
Region Poland
Timezone Europe/Warsaw (UTC+1.0)
Stats Elevation 791 ft / 241 m (AMSL)
Location 50.077821° 19.785503°
Runways 1
Magnetic Variation 5.201° E

METAR

EPKK 120230Z 18011KT 150V210 CAVOK 13/04 Q0993

Decode

TAF

TAF EPKK 112330Z 1200/1224 19015KT CAVOK PROB30 TEMPO 1200/1207 20020G40KT BECMG 1210/1212 25005KT PROB30 TEMPO 1210/1224 25015G25KT BKN014

Decode

Departure Runways

ID Width Length Bearing (true) Bearing (mag) Surface Threshold Offset Overrun Length
07 197 ft / 60 m 8,343 ft / 2,543 m 77.75° 72.55° Concrete 0 ft / 0 m 0 ft / 0 m
25 197 ft / 60 m 8,343 ft / 2,543 m 257.77° 252.57° Concrete 784 ft / 239 m 0 ft / 0 m

EPGD

Details ICAO EPGD (GDN)
Name LECH WALESA
Region Poland
Timezone Europe/Warsaw (UTC+1.0)
Stats Elevation 489 ft / 149 m (AMSL)
Location 54.376167° 18.471884°
Runways 1
Magnetic Variation 5.449° E

METAR

EPGD 120230Z 18012KT CAVOK 04/03 Q0987 R11/290095

Decode

TAF

TAF TAF EPGD 112330Z 1200/1224 18010KT 9999 BKN030 PROB40 1200/1206 3000 -RADZ BR BKN005 BECMG 1206/1208 24015KT TEMPO 1208/1218 24020G35KT PROB40 1208/1220 4000 -RA BR BKN008

Decode

Destination Runways

ID Width Length Bearing (true) Bearing (mag) Surface Threshold Offset Overrun Length
11 148 ft / 45 m 9,158 ft / 2,791 m 112.96° 107.51° Asphalt 0 ft / 0 m 0 ft / 0 m
29 148 ft / 45 m 9,158 ft / 2,791 m 293.00° 287.55° Asphalt 0 ft / 0 m 0 ft / 0 m

Approach Navaids

Runway Type Ident Frequency Range Bearing (true) Bearing (mag) Slope Elevation
29 Localiser IGDA 110.30 MHz 18 nm / 33 km 292.96° 287.51° - 489 ft / 149 m (AMSL)
29 Glidescope IGDA 110.30 MHz 10 nm / 19 km 292.98° 287.53° 2.90° 489 ft / 149 m (AMSL)
29 DME IGDA 110.30 MHz 18 nm / 33 km - - - 492 ft / 150 m (AMSL)

Popular Alternatives